Time;durP1;ratioP1;P1;durP2;ratioP2;P2;SDS_P1;SDS_P2;PMS_P1;PMS_P2;Temp;Humidity;BMP_temperature;BMP_pressure;BME280_temperature;BME280_humidity;BME280_pressure;Samples;Min_cycle;Max_cycle;Signal;HPM_P1;HPM_P2
2022/07/09 00:00:41;;;;;;;53.42;49.53;;;;;;;17.50;100.00;100796.91;6039178;23;20023;-83
2022/07/09 00:03:09;;;;;;;30.65;27.92;;;;;;;17.41;100.00;100793.03;6038958;23;20382;-83
2022/07/09 00:05:37;;;;;;;40.13;36.53;;;;;;;17.42;100.00;100793.84;6039061;23;20024;-83
2022/07/09 00:08:04;;;;;;;39.13;35.63;;;;;;;17.02;100.00;100798.41;6038992;23;20027;-82
2022/07/09 00:10:32;;;;;;;43.00;39.67;;;;;;;16.95;100.00;100797.78;6039136;23;20445;-83
2022/07/09 00:13:01;;;;;;;37.75;34.42;;;;;;;17.08;100.00;100797.41;6039052;23;20425;-83
2022/07/09 00:15:28;;;;;;;35.95;32.95;;;;;;;16.82;100.00;100801.59;6038962;23;20027;-83
2022/07/09 00:17:55;;;;;;;37.92;34.63;;;;;;;16.99;100.00;100796.22;6039202;23;20031;-83
2022/07/09 00:20:22;;;;;;;36.83;33.83;;;;;;;17.15;100.00;100791.88;6040344;23;20433;-83
2022/07/09 00:22:49;;;;;;;37.08;33.67;;;;;;;16.92;100.00;100796.41;6040749;23;20186;-83
2022/07/09 00:25:19;;;;;;;46.38;42.67;;;;;;;16.99;100.00;100790.03;6040722;23;20034;-83
2022/07/09 00:27:46;;;;;;;38.70;35.63;;;;;;;17.10;100.00;100791.81;6041143;23;20030;-83
2022/07/09 00:30:15;;;;;;;39.00;35.70;;;;;;;16.97;100.00;100792.16;6040428;23;20015;-83
2022/07/09 00:32:44;;;;;;;40.47;37.17;;;;;;;17.14;100.00;100792.94;6040899;23;20027;-83
2022/07/09 00:35:11;;;;;;;41.55;37.90;;;;;;;16.82;100.00;100798.91;6041141;23;20024;-83
2022/07/09 00:37:39;;;;;;;36.88;33.70;;;;;;;16.44;100.00;100800.44;6040761;23;20027;-83
2022/07/09 00:40:07;;;;;;;57.67;53.03;;;;;;;16.25;100.00;100802.53;6040362;23;20512;-82
2022/07/09 00:42:34;;;;;;;38.85;35.65;;;;;;;16.33;100.00;100801.31;6040391;23;20382;-82
2022/07/09 00:45:01;;;;;;;39.60;36.03;;;;;;;16.00;100.00;100799.38;6040494;23;20019;-80
2022/07/09 00:47:29;;;;;;;38.20;35.00;;;;;;;16.76;100.00;100804.44;6051256;23;20023;-82
2022/07/09 00:49:57;;;;;;;38.88;35.78;;;;;;;16.25;100.00;100807.88;6063614;23;20027;-82
2022/07/09 00:52:25;;;;;;;36.45;33.25;;;;;;;16.34;100.00;100799.44;6063927;23;20041;-83
2022/07/09 00:54:52;;;;;;;42.53;38.97;;;;;;;16.60;100.00;100798.00;6063296;23;20023;-82
2022/07/09 00:57:22;;;;;;;34.95;32.05;;;;;;;15.98;100.00;100802.31;6060092;23;20023;-83
2022/07/09 00:59:49;;;;;;;37.47;34.22;;;;;;;16.73;100.00;100805.72;6063425;23;20023;-83
2022/07/09 01:02:19;;;;;;;40.88;36.88;;;;;;;16.48;100.00;100798.88;6063444;23;20502;-83
2022/07/09 01:04:47;;;;;;;36.03;32.83;;;;;;;15.95;100.00;100794.75;6063169;23;20463;-83
2022/07/09 01:07:14;;;;;;;37.50;34.25;;;;;;;16.24;100.00;100800.06;6060617;23;20020;-83
2022/07/09 01:09:42;;;;;;;35.17;32.00;;;;;;;16.44;100.00;100805.78;6061275;23;20027;-83
2022/07/09 01:12:09;;;;;;;34.92;32.05;;;;;;;16.58;100.00;100808.16;6063470;23;20030;-83
2022/07/09 01:14:36;;;;;;;34.10;30.83;;;;;;;16.17;100.00;100799.44;6063649;23;20007;-83
2022/07/09 01:17:07;;;;;;;37.50;33.78;;;;;;;16.37;100.00;100791.75;6063184;23;20027;-83
2022/07/09 01:19:35;;;;;;;38.13;34.28;;;;;;;16.65;100.00;100798.09;6063451;23;20007;-83
2022/07/09 01:22:04;;;;;;;35.53;32.13;;;;;;;16.60;100.00;100795.31;6058559;23;20015;-83
2022/07/09 01:24:31;;;;;;;35.08;32.08;;;;;;;16.54;100.00;100799.78;6052762;23;20029;-83
2022/07/09 01:26:58;;;;;;;33.40;30.48;;;;;;;16.40;100.00;100795.78;6039992;23;20027;-81
2022/07/09 01:29:25;;;;;;;37.25;34.17;;;;;;;16.32;100.00;100804.25;6039824;23;20027;-82
2022/07/09 01:31:52;;;;;;;37.33;33.90;;;;;;;16.34;100.00;100799.44;6039489;23;20441;-82
2022/07/09 01:34:19;;;;;;;39.40;35.90;;;;;;;15.89;100.00;100806.44;6039876;23;20038;-84
2022/07/09 01:36:46;;;;;;;41.97;38.28;;;;;;;15.84;100.00;100809.00;6040041;23;20027;-84
2022/07/09 01:39:15;;;;;;;39.15;35.70;;;;;;;16.36;100.00;100800.81;6040717;23;20030;-84
2022/07/09 01:41:42;;;;;;;34.75;31.52;;;;;;;16.37;100.00;100791.75;6040295;23;20082;-84
2022/07/09 01:44:10;;;;;;;41.60;38.13;;;;;;;15.88;100.00;100801.28;6040139;23;20307;-83
2022/07/09 01:46:37;;;;;;;40.67;37.15;;;;;;;16.20;100.00;100798.94;6040317;23;20445;-83
2022/07/09 01:49:05;;;;;;;40.28;36.85;;;;;;;16.27;100.00;100799.59;6039994;23;20019;-83
2022/07/09 01:51:34;;;;;;;37.60;34.33;;;;;;;16.03;100.00;100797.03;6039909;23;20023;-83
2022/07/09 01:54:01;;;;;;;42.17;38.70;;;;;;;15.91;100.00;100796.25;6040050;23;20019;-83
2022/07/09 01:56:29;;;;;;;35.50;32.25;;;;;;;15.80;100.00;100799.81;6039845;23;20094;-82
2022/07/09 01:58:56;;;;;;;40.85;37.55;;;;;;;15.56;100.00;100799.84;6039808;23;20028;-82
2022/07/09 02:01:23;;;;;;;39.47;36.20;;;;;;;16.12;100.00;100802.81;6033949;23;20027;-83
2022/07/09 02:03:50;;;;;;;39.17;35.65;;;;;;;15.94;100.00;100794.97;6039783;23;20031;-84
2022/07/09 02:06:17;;;;;;;36.95;33.95;;;;;;;15.94;100.00;100803.00;6047875;23;20015;-81
2022/07/09 02:08:44;;;;;;;40.47;37.13;;;;;;;16.15;100.00;100804.19;6044043;23;20098;-84
2022/07/09 02:11:11;;;;;;;42.35;38.88;;;;;;;16.17;100.00;100797.56;6053922;23;20015;-81
2022/07/09 02:13:39;;;;;;;54.03;49.80;;;;;;;16.00;100.00;100792.16;6048030;23;20081;-84
2022/07/09 02:16:08;;;;;;;44.40;40.70;;;;;;;16.15;100.00;100798.84;6048267;23;20034;-84
2022/07/09 02:18:36;;;;;;;39.88;36.38;;;;;;;15.75;100.00;100803.19;6045777;23;20070;-83
2022/07/09 02:21:04;;;;;;;40.17;36.83;;;;;;;15.57;100.00;100800.66;6044022;23;20035;-83
2022/07/09 02:23:31;;;;;;;40.75;37.20;;;;;;;15.74;100.00;100798.09;6041241;23;20103;-83
2022/07/09 02:25:58;;;;;;;42.00;38.60;;;;;;;16.07;100.00;100796.53;6043871;23;20295;-82
2022/07/09 02:28:25;;;;;;;42.40;38.75;;;;;;;16.05;100.00;100794.13;6044972;23;20035;-82
2022/07/09 02:30:54;;;;;;;39.78;36.28;;;;;;;15.54;100.00;100798.47;6047605;23;20102;-81
2022/07/09 02:33:22;;;;;;;36.45;32.90;;;;;;;15.90;100.00;100801.88;6043152;23;20034;-83
2022/07/09 02:35:49;;;;;;;36.60;33.45;;;;;;;16.01;100.00;100803.69;6046459;23;20062;-84
2022/07/09 02:38:16;;;;;;;33.83;30.92;;;;;;;16.23;100.00;100801.16;6047886;23;20441;-84
2022/07/09 02:40:43;;;;;;;35.22;32.10;;;;;;;15.90;100.00;100801.88;6041555;23;20111;-84
2022/07/09 02:43:10;;;;;;;36.88;33.97;;;;;;;16.16;100.00;100801.31;6044650;23;20019;-84
2022/07/09 02:45:37;;;;;;;34.33;31.42;;;;;;;16.24;100.00;100805.44;6040014;23;20030;-84
2022/07/09 02:48:05;;;;;;;33.03;30.20;;;;;;;15.68;100.00;100813.25;6045957;23;20028;-81
2022/07/09 02:50:38;;;;;;;33.30;30.20;;;;;;;15.68;100.00;100802.53;6043233;23;20027;-85
2022/07/09 02:53:05;;;;;;;34.38;31.23;;;;;;;15.74;100.00;100811.47;6042220;23;20031;-83
2022/07/09 02:55:32;;;;;;;37.03;34.30;;;;;;;15.86;100.00;100820.28;6045150;23;20027;-81
2022/07/09 02:57:59;;;;;;;33.22;30.65;;;;;;;15.89;100.00;100830.53;6041697;23;20084;-83
2022/07/09 03:00:26;;;;;;;33.38;30.45;;;;;;;16.11;100.00;100821.81;6041407;23;20019;-81
2022/07/09 03:02:54;;;;;;;33.42;30.80;;;;;;;16.11;100.00;100830.66;6044286;23;20020;-80
2022/07/09 03:05:22;;;;;;;33.35;30.25;;;;;;;15.45;100.00;100829.31;6044626;23;20034;-82
2022/07/09 03:07:49;;;;;;;34.30;31.67;;;;;;;15.81;100.00;100836.25;6046654;23;20037;-84
2022/07/09 03:10:17;;;;;;;32.30;29.70;;;;;;;15.85;100.00;100848.09;6047021;23;20098;-84
2022/07/09 03:12:44;;;;;;;34.33;31.30;;;;;;;14.98;100.00;100829.38;6042629;23;20024;-83
2022/07/09 03:15:13;;;;;;;37.60;34.60;;;;;;;15.75;100.00;100838.00;6046013;23;20038;-83
2022/07/09 03:17:39;;;;;;;34.90;32.08;;;;;;;15.56;100.00;100842.69;6046874;23;20031;-81
2022/07/09 03:20:07;;;;;;;35.00;32.20;;;;;;;16.22;100.00;100839.72;6042759;23;20027;-84
2022/07/09 03:22:37;;;;;;;33.53;30.83;;;;;;;16.36;100.00;100849.06;6046254;23;20445;-86
2022/07/09 03:25:12;;;;;;;34.67;31.85;;;;;;;16.62;100.00;100850.34;6041990;23;20046;-84
2022/07/09 03:27:40;;;;;;;33.88;31.40;;;;;;;16.64;100.00;100844.72;6041995;23;20035;-83
2022/07/09 03:30:12;;;;;;;33.22;30.63;;;;;;;16.48;100.00;100851.69;6039129;23;20027;-83
2022/07/09 03:32:39;;;;;;;34.55;31.85;;;;;;;16.18;100.00;100847.41;6045813;23;20059;-81
2022/07/09 03:35:07;;;;;;;34.97;32.20;;;;;;;16.01;100.00;100846.56;6044694;23;20394;-84
2022/07/09 03:37:37;;;;;;;34.05;31.25;;;;;;;16.60;100.00;100855.13;6043627;23;20028;-84
2022/07/09 03:40:06;;;;;;;34.78;32.00;;;;;;;16.76;100.00;100860.75;6047476;23;20028;-83
2022/07/09 03:42:41;;;;;;;35.53;32.70;;;;;;;16.86;100.00;100860.94;6044334;23;20071;-84
2022/07/09 03:45:09;;;;;;;36.80;33.80;;;;;;;16.66;100.00;100866.75;6042866;23;20023;-83
2022/07/09 03:47:38;;;;;;;35.38;32.50;;;;;;;16.99;100.00;100867.84;6042722;23;20030;-83
2022/07/09 03:50:06;;;;;;;34.42;31.90;;;;;;;17.11;100.00;100868.56;6045719;23;20038;-80
2022/07/09 03:52:33;;;;;;;32.75;30.45;;;;;;;16.88;100.00;100875.75;6044301;23;20031;-81
2022/07/09 03:55:07;;;;;;;32.30;29.90;;;;;;;16.87;100.00;100871.41;6045537;23;20038;-83
2022/07/09 03:57:34;;;;;;;34.10;31.42;;;;;;;17.30;100.00;100869.09;6044728;23;20023;-82
2022/07/09 04:00:08;;;;;;;31.25;29.25;;;;;;;17.39;100.00;100873.81;6051413;23;20019;-83
2022/07/09 04:02:35;;;;;;;33.65;31.00;;;;;;;17.07;100.00;100875.50;6047259;23;20019;-84
2022/07/09 04:05:03;;;;;;;31.23;29.13;;;;;;;17.47;100.00;100869.09;6046755;23;20034;-83
2022/07/09 04:07:30;;;;;;;30.20;28.10;;;;;;;17.14;100.00;100868.09;6041954;23;20028;-82
2022/07/09 04:09:58;;;;;;;31.25;29.08;;;;;;;17.67;100.00;100868.53;6041594;23;20031;-83
2022/07/09 04:12:26;;;;;;;28.17;26.35;;;;;;;17.55;100.00;100860.59;6045599;23;20414;-81
2022/07/09 04:14:53;;;;;;;28.33;26.17;;;;;;;17.93;100.00;100859.75;6044241;23;20023;-82
2022/07/09 04:17:21;;;;;;;29.42;27.42;;;;;;;18.06;100.00;100859.38;6044159;23;20031;-84
2022/07/09 04:19:48;;;;;;;29.85;27.60;;;;;;;18.01;100.00;100853.13;6041698;23;20471;-81
2022/07/09 04:22:15;;;;;;;30.08;27.95;;;;;;;18.05;100.00;100860.44;6043830;23;20024;-84
2022/07/09 04:24:44;;;;;;;30.58;28.48;;;;;;;18.11;100.00;100855.91;6042707;23;20050;-81
2022/07/09 04:27:10;;;;;;;30.88;28.98;;;;;;;18.23;100.00;100850.41;6043230;23;20023;-82
2022/07/09 04:29:39;;;;;;;30.95;28.85;;;;;;;18.30;100.00;100862.56;6044924;23;20023;-83
2022/07/09 04:32:08;;;;;;;29.88;27.67;;;;;;;18.68;100.00;100849.22;6042360;23;20091;-84
2022/07/09 04:34:42;;;;;;;28.75;26.67;;;;;;;18.58;100.00;100862.56;6043195;23;20358;-85
2022/07/09 04:37:09;;;;;;;29.80;27.88;;;;;;;18.61;100.00;100860.19;6039675;23;20425;-80
2022/07/09 04:39:37;;;;;;;29.85;27.90;;;;;;;18.43;100.00;100861.38;6039877;23;20095;-84
2022/07/09 04:42:04;;;;;;;30.15;28.15;;;;;;;18.76;100.00;100867.59;6041418;23;20082;-84
2022/07/09 04:44:31;;;;;;;29.05;26.95;;;;;;;18.91;100.00;100864.19;6041289;23;20023;-82
2022/07/09 04:47:03;;;;;;;27.83;26.02;;;;;;;19.01;100.00;100864.28;6039154;23;20027;-84
2022/07/09 04:49:30;;;;;;;26.92;25.15;;;;;;;18.75;100.00;100869.47;6041264;23;20050;-80
2022/07/09 04:51:58;;;;;;;28.15;26.00;;;;;;;18.92;100.00;100871.22;6040010;23;20031;-84
2022/07/09 04:54:25;;;;;;;27.98;26.17;;;;;;;19.18;100.00;100864.97;6040495;23;20047;-80
2022/07/09 04:56:51;;;;;;;28.67;26.77;;;;;;;18.97;100.00;100876.63;6042677;23;20046;-82
2022/07/09 04:59:18;;;;;;;26.77;25.08;;;;;;;19.32;100.00;100880.66;6037801;23;20024;-83
2022/07/09 05:01:48;;;;;;;28.35;26.48;;;;;;;19.15;100.00;100878.94;6040366;23;20031;-84
2022/07/09 05:04:16;;;;;;;29.38;27.48;;;;;;;19.58;100.00;100871.63;6034483;23;20102;-82
2022/07/09 05:06:43;;;;;;;28.27;26.33;;;;;;;19.86;100.00;100867.75;6040615;23;20035;-85
2022/07/09 05:09:10;;;;;;;28.50;26.75;;;;;;;19.85;100.00;100865.31;6042665;23;20368;-82
2022/07/09 05:11:37;;;;;;;26.88;25.15;;;;;;;19.59;100.00;100864.38;6038867;23;20495;-83
2022/07/09 05:14:05;;;;;;;27.20;25.40;;;;;;;19.87;100.00;100863.97;6038291;23;20348;-84
2022/07/09 05:16:32;;;;;;;26.42;24.52;;;;;;;20.18;100.00;100863.25;6039551;23;20082;-84
2022/07/09 05:19:01;;;;;;;26.65;24.58;;;;;;;20.44;100.00;100866.81;6039385;23;20019;-83
2022/07/09 05:21:30;;;;;;;26.05;24.10;;;;;;;20.74;100.00;100863.34;6042212;23;20023;-85
2022/07/09 05:23:57;;;;;;;26.88;24.75;;;;;;;21.02;100.00;100861.97;6040769;23;20078;-84
2022/07/09 05:26:24;;;;;;;28.48;25.85;;;;;;;21.27;100.00;100861.94;6040304;23;20027;-81
2022/07/09 05:28:52;;;;;;;25.33;23.23;;;;;;;21.72;100.00;100859.38;6039217;23;20095;-80
2022/07/09 05:31:18;;;;;;;25.10;23.27;;;;;;;21.71;100.00;100855.06;6036713;23;20023;-83
2022/07/09 05:33:45;;;;;;;23.85;22.05;;;;;;;22.84;100.00;100839.75;6040352;23;20026;-81
2022/07/09 05:36:12;;;;;;;23.80;22.20;;;;;;;23.25;100.00;100852.91;6039865;23;20039;-82
2022/07/09 05:38:41;;;;;;;24.95;23.30;;;;;;;23.57;100.00;100851.47;6040411;23;20031;-82
2022/07/09 05:41:10;;;;;;;24.65;22.95;;;;;;;23.87;100.00;100844.84;6042175;23;20028;-82
2022/07/09 05:43:37;;;;;;;25.17;23.27;;;;;;;23.48;100.00;100850.47;6040637;23;20024;-79
2022/07/09 05:46:04;;;;;;;24.95;23.45;;;;;;;23.22;100.00;100848.06;6041512;23;20023;-79
2022/07/09 05:48:34;;;;;;;25.83;24.23;;;;;;;23.45;100.00;100842.91;6043272;23;20034;-81
2022/07/09 05:51:00;;;;;;;23.92;22.38;;;;;;;23.48;100.00;100848.59;6039745;23;20031;-82
2022/07/09 05:53:27;;;;;;;24.58;22.88;;;;;;;23.62;100.00;100856.81;6039752;23;20031;-81
2022/07/09 05:55:56;;;;;;;25.35;23.73;;;;;;;23.62;100.00;100845.97;6039428;23;20028;-80
2022/07/09 05:58:26;;;;;;;25.30;23.58;;;;;;;23.54;100.00;100852.03;6041343;23;20027;-84
2022/07/09 06:00:53;;;;;;;24.35;22.75;;;;;;;23.83;100.00;100845.75;6042254;23;20035;-81
2022/07/09 06:03:20;;;;;;;25.88;23.98;;;;;;;23.90;100.00;100843.47;6041249;23;20027;-83
2022/07/09 06:05:48;;;;;;;24.35;22.65;;;;;;;23.94;100.00;100847.22;6038250;23;20058;-83
2022/07/09 06:08:16;;;;;;;24.95;23.13;;;;;;;24.25;100.00;100850.31;6041210;23;20019;-82
2022/07/09 06:10:44;;;;;;;25.05;23.33;;;;;;;24.22;100.00;100848.19;6046117;23;20028;-83
2022/07/09 06:13:13;;;;;;;24.73;23.23;;;;;;;25.10;100.00;100860.03;6041258;23;20042;-81
2022/07/09 06:15:40;;;;;;;24.85;23.35;;;;;;;24.81;100.00;100848.63;6045714;23;20056;-80
2022/07/09 06:18:07;;;;;;;25.13;23.40;;;;;;;24.64;100.00;100841.84;6038811;23;20034;-80
2022/07/09 06:20:34;;;;;;;25.15;23.45;;;;;;;24.24;100.00;100848.69;6034865;23;20041;-80
2022/07/09 06:23:01;;;;;;;25.55;23.67;;;;;;;24.25;100.00;100852.22;6039778;23;20035;-80
2022/07/09 06:25:28;;;;;;;25.10;23.38;;;;;;;24.12;100.00;100853.75;6036626;23;20620;-80
2022/07/09 06:27:55;;;;;;;25.60;23.83;;;;;;;23.84;100.00;100848.16;6039477;23;20027;-79
2022/07/09 06:30:23;;;;;;;25.10;23.38;;;;;;;24.35;100.00;100838.47;6036204;23;20027;-78
2022/07/09 06:32:50;;;;;;;25.05;23.45;;;;;;;24.28;100.00;100849.72;6035468;23;20027;-79
2022/07/09 06:35:19;;;;;;;26.23;24.52;;;;;;;24.48;100.00;100845.09;6036054;23;20023;-81
2022/07/09 06:37:46;;;;;;;25.40;23.80;;;;;;;24.68;100.00;100834.69;6042841;23;20027;-80
2022/07/09 06:40:13;;;;;;;25.35;23.60;;;;;;;24.88;100.00;100841.69;6041770;23;20102;-81
2022/07/09 06:42:40;;;;;;;24.50;22.67;;;;;;;24.63;100.00;100832.09;6043668;23;20098;-79
2022/07/09 06:45:09;;;;;;;26.42;24.05;;;;;;;24.97;100.00;100841.81;6039372;23;20023;-80
2022/07/09 06:47:38;;;;;;;26.30;24.13;;;;;;;24.96;100.00;100842.91;6041090;23;20055;-80
2022/07/09 06:50:05;;;;;;;53.35;49.55;;;;;;;24.62;100.00;100838.59;6038714;23;20030;-80
2022/07/09 06:52:32;;;;;;;63.35;57.85;;;;;;;24.82;100.00;100836.66;6040635;23;20023;-80
2022/07/09 06:54:59;;;;;;;58.75;54.10;;;;;;;24.81;100.00;100840.47;6037489;23;20027;-80
2022/07/09 06:57:26;;;;;;;65.25;60.60;;;;;;;24.87;100.00;100834.66;6038834;23;20019;-81
2022/07/09 06:59:53;;;;;;;73.38;67.47;;;;;;;24.86;100.00;100829.53;6039333;23;20459;-81
2022/07/09 07:02:20;;;;;;;67.50;62.30;;;;;;;24.57;100.00;100829.75;6040188;23;20349;-82
2022/07/09 07:04:48;;;;;;;63.67;58.67;;;;;;;24.78;100.00;100833.75;6040308;23;20027;-81
2022/07/09 07:07:16;;;;;;;62.72;58.05;;;;;;;24.61;100.00;100828.84;6036628;23;20031;-81
2022/07/09 07:09:44;;;;;;;58.40;53.72;;;;;;;24.66;100.00;100831.50;6038114;23;20408;-82
2022/07/09 07:12:11;;;;;;;57.30;52.90;;;;;;;24.39;100.00;100824.03;6037956;23;20070;-80
2022/07/09 07:14:38;;;;;;;54.90;50.60;;;;;;;24.50;100.00;100821.97;6036195;23;20024;-79
2022/07/09 07:17:05;;;;;;;55.92;51.30;;;;;;;24.95;100.00;100832.34;6035419;23;20031;-80
2022/07/09 07:19:32;;;;;;;58.70;54.00;;;;;;;25.34;100.00;100840.06;6035041;23;20031;-80
2022/07/09 07:22:01;;;;;;;56.67;52.30;;;;;;;25.28;100.00;100824.97;6032618;23;20023;-80
2022/07/09 07:24:30;;;;;;;56.60;52.25;;;;;;;25.88;97.17;100829.47;6036544;23;20023;-82
2022/07/09 07:26:57;;;;;;;57.83;53.03;;;;;;;26.02;87.53;100828.31;6042218;23;20026;-80
2022/07/09 07:29:26;;;;;;;61.13;56.03;;;;;;;26.30;94.69;100833.66;6036028;23;20050;-81
2022/07/09 07:31:53;;;;;;;61.90;56.78;;;;;;;26.48;93.42;100840.84;6038527;23;20023;-79
2022/07/09 07:34:23;;;;;;;63.22;57.47;;;;;;;26.21;100.00;100833.59;6039284;23;20027;-83
2022/07/09 07:36:51;;;;;;;61.20;55.65;;;;;;;26.45;77.07;100827.84;6034805;23;20075;-80
2022/07/09 07:39:21;;;;;;;65.05;58.97;;;;;;;26.67;89.17;100832.50;6039253;23;20420;-80
2022/07/09 07:41:49;;;;;;;58.97;53.75;;;;;;;26.98;82.23;100828.19;6042419;23;20027;-80
2022/07/09 07:44:16;;;;;;;56.22;51.72;;;;;;;26.81;76.07;100826.97;6046557;23;20329;-80
2022/07/09 07:46:44;;;;;;;56.30;51.70;;;;;;;27.12;72.67;100829.69;6038113;23;20027;-79
2022/07/09 07:49:11;;;;;;;55.80;51.30;;;;;;;27.20;76.08;100830.06;6045840;23;20518;-80
2022/07/09 07:51:38;;;;;;;52.90;48.70;;;;;;;27.20;73.87;100830.84;6043532;23;20028;-79
2022/07/09 07:54:05;;;;;;;54.03;49.58;;;;;;;27.34;82.57;100828.03;6046252;23;20341;-79
2022/07/09 07:56:36;;;;;;;52.75;48.45;;;;;;;27.43;76.46;100828.84;6041520;23;20102;-80
2022/07/09 07:59:03;;;;;;;52.58;48.20;;;;;;;27.37;77.33;100828.19;6041368;23;20062;-78
2022/07/09 08:01:30;;;;;;;50.28;46.47;;;;;;;27.44;76.24;100824.19;6038165;23;20027;-79
2022/07/09 08:03:57;;;;;;;50.28;45.95;;;;;;;27.56;75.73;100824.38;6043092;23;20389;-78
2022/07/09 08:06:24;;;;;;;50.15;46.20;;;;;;;27.40;74.97;100827.56;6041059;23;20047;-79
2022/07/09 08:08:51;;;;;;;51.75;47.50;;;;;;;27.23;81.50;100829.44;6040059;23;20476;-78
2022/07/09 08:11:18;;;;;;;47.72;44.13;;;;;;;27.30;72.24;100827.06;6037626;23;20046;-80
2022/07/09 08:13:46;;;;;;;55.75;51.28;;;;;;;27.66;68.34;100826.00;6039471;23;20023;-79
2022/07/09 08:16:14;;;;;;;56.63;51.72;;;;;;;27.52;78.72;100817.97;6038937;23;20023;-79
2022/07/09 08:18:41;;;;;;;59.95;55.20;;;;;;;27.31;79.38;100813.09;6038263;23;20107;-79
2022/07/09 08:21:08;;;;;;;61.00;55.97;;;;;;;27.51;76.57;100811.72;6038175;23;20023;-79
2022/07/09 08:23:51;;;;;;;55.15;50.55;;;;;;;27.60;68.10;100815.25;6038775;23;20095;-78
2022/07/09 08:26:19;;;;;;;54.35;49.25;;;;;;;28.15;71.39;100816.63;6038369;23;20023;-79
2022/07/09 08:28:47;;;;;;;56.47;51.38;;;;;;;28.36;61.84;100805.84;6038561;23;20091;-79
2022/07/09 08:31:15;;;;;;;54.15;49.28;;;;;;;28.06;57.93;100802.16;6039447;23;20386;-79
2022/07/09 08:33:41;;;;;;;56.42;51.33;;;;;;;28.08;65.08;100813.56;6039804;23;20038;-81
2022/07/09 08:36:08;;;;;;;60.55;55.25;;;;;;;28.31;65.85;100814.19;6038622;23;20039;-79
2022/07/09 08:38:35;;;;;;;64.10;57.53;;;;;;;27.93;55.73;100808.56;6037767;23;20019;-79
2022/07/09 08:41:05;;;;;;;63.53;57.47;;;;;;;28.37;62.41;100803.91;6040646;23;20070;-79
2022/07/09 08:43:33;;;;;;;63.38;56.33;;;;;;;28.49;59.02;100815.78;6041271;23;20394;-80
2022/07/09 08:46:02;;;;;;;65.97;59.88;;;;;;;28.81;56.46;100813.63;6041660;23;20034;-80
2022/07/09 08:48:29;;;;;;;60.25;55.03;;;;;;;28.71;57.90;100803.84;6042958;23;20019;-78
2022/07/09 08:50:58;;;;;;;58.58;53.42;;;;;;;28.55;64.62;100800.03;6041098;23;20034;-78
2022/07/09 08:53:29;;;;;;;60.80;55.28;;;;;;;28.81;64.30;100804.63;6042364;23;20034;-79
2022/07/09 08:55:56;;;;;;;59.95;54.53;;;;;;;28.82;61.26;100807.03;6040307;23;20046;-80
2022/07/09 08:58:24;;;;;;;58.92;53.53;;;;;;;28.52;59.31;100811.63;6040987;23;20030;-80
2022/07/09 09:00:51;;;;;;;59.88;54.38;;;;;;;28.54;58.08;100807.44;6041123;23;20024;-79
2022/07/09 09:03:20;;;;;;;62.65;57.13;;;;;;;28.85;64.11;100808.31;6042163;23;20033;-79
2022/07/09 09:06:02;;;;;;;62.60;56.88;;;;;;;28.75;57.49;100798.53;6040167;23;20082;-79
2022/07/09 09:08:33;;;;;;;59.00;53.70;;;;;;;28.56;59.67;100789.91;6041823;23;20437;-79
2022/07/09 09:11:00;;;;;;;61.80;55.90;;;;;;;28.90;63.99;100795.28;6040508;23;20034;-79
2022/07/09 09:13:27;;;;;;;62.17;56.17;;;;;;;29.31;58.09;100793.81;6040928;23;20046;-80
2022/07/09 09:16:04;;;;;;;63.85;58.25;;;;;;;29.49;58.27;100799.19;6040772;23;20023;-80
2022/07/09 09:18:32;;;;;;;64.35;58.75;;;;;;;29.25;54.84;100799.81;6041736;23;20057;-79
2022/07/09 09:21:06;;;;;;;63.45;57.85;;;;;;;29.41;52.63;100800.81;6041973;23;20441;-80
2022/07/09 09:23:43;;;;;;;62.80;57.13;;;;;;;29.73;55.23;100787.63;6039036;23;20446;-80
2022/07/09 09:26:12;;;;;;;61.15;55.55;;;;;;;29.23;60.93;100794.69;6038322;23;20019;-79
2022/07/09 09:28:53;;;;;;;62.50;56.80;;;;;;;29.40;54.23;100796.50;6036953;23;20468;-79
2022/07/09 09:31:24;;;;;;;64.78;58.88;;;;;;;29.66;52.13;100793.63;6040966;23;20031;-79
2022/07/09 09:33:55;;;;;;;65.65;59.45;;;;;;;29.67;57.70;100790.53;6038913;23;20031;-78
2022/07/09 09:36:32;;;;;;;64.00;57.90;;;;;;;29.69;54.82;100787.50;6041091;23;20023;-79
2022/07/09 09:39:15;;;;;;;61.63;55.83;;;;;;;30.10;49.19;100778.44;6036712;23;20123;-79
2022/07/09 09:41:46;;;;;;;58.70;53.83;;;;;;;29.13;51.90;100784.09;6036992;23;20023;-83
2022/07/09 09:44:15;;;;;;;55.70;51.38;;;;;;;29.45;46.74;100774.44;6041297;23;20028;-78
2022/07/09 09:46:43;;;;;;;60.05;54.38;;;;;;;29.09;53.03;100775.75;6040513;23;20031;-80
2022/07/09 09:49:14;;;;;;;65.22;59.03;;;;;;;29.12;50.45;100774.28;6035160;23;20031;-80
2022/07/09 09:51:51;;;;;;;65.90;59.70;;;;;;;29.39;50.85;100773.81;6039979;23;20062;-81
2022/07/09 09:54:20;;;;;;;66.05;59.95;;;;;;;29.55;51.59;100779.50;6039016;23;20023;-81
2022/07/09 09:56:49;;;;;;;69.88;63.22;;;;;;;29.77;56.52;100778.38;6043594;23;20427;-81
2022/07/09 09:59:16;;;;;;;65.40;59.30;;;;;;;30.07;52.08;100764.63;6041511;23;20023;-81
2022/07/09 10:01:44;;;;;;;64.10;58.20;;;;;;;29.94;56.19;100760.22;6042286;23;20031;-81
2022/07/09 10:04:14;;;;;;;64.10;58.28;;;;;;;29.75;50.76;100764.25;6047011;23;20023;-84
2022/07/09 10:06:43;;;;;;;67.68;61.75;;;;;;;30.54;47.83;100758.84;6045835;23;20341;-82
2022/07/09 10:09:13;;;;;;;64.35;58.55;;;;;;;29.91;47.19;100756.22;6041666;23;20023;-83
2022/07/09 10:11:45;;;;;;;64.68;58.53;;;;;;;30.10;51.26;100759.25;6046691;23;20031;-81
2022/07/09 10:14:30;;;;;;;66.13;59.67;;;;;;;29.76;52.33;100756.84;6039853;23;20451;-82
2022/07/09 10:16:57;;;;;;;66.85;60.40;;;;;;;30.34;45.02;100747.59;6039258;23;20031;-83
2022/07/09 10:19:32;;;;;;;70.22;63.65;;;;;;;30.19;44.40;100745.47;6039452;23;20020;-82
2022/07/09 10:22:01;;;;;;;26.27;23.83;;;;;;;30.23;54.59;100740.97;6036797;23;20034;-82
2022/07/09 10:24:30;;;;;;;26.33;23.85;;;;;;;29.96;51.65;100747.81;6039425;23;20155;-83
2022/07/09 10:27:05;;;;;;;28.48;26.27;;;;;;;30.22;45.92;100746.78;6039042;23;20034;-82
2022/07/09 10:29:33;;;;;;;28.38;26.15;;;;;;;30.46;46.16;100737.81;6034074;23;20055;-83
2022/07/09 10:32:01;;;;;;;26.45;24.35;;;;;;;30.39;43.57;100730.16;6034094;23;20426;-83
2022/07/09 10:34:50;;;;;;;25.20;23.10;;;;;;;30.27;53.47;100727.41;6037075;23;20027;-84
2022/07/09 10:37:18;;;;;;;26.40;24.42;;;;;;;30.45;45.71;100730.75;6038799;23;20107;-82
2022/07/09 10:39:54;;;;;;;25.60;23.40;;;;;;;30.27;43.68;100727.41;6038992;23;20094;-82
2022/07/09 10:42:24;;;;;;;26.50;24.70;;;;;;;30.16;51.45;100732.47;6038751;23;20389;-83
2022/07/09 10:44:51;;;;;;;25.88;23.98;;;;;;;29.56;59.52;100731.03;6040451;23;20043;-82
2022/07/09 10:47:19;;;;;;;26.17;24.27;;;;;;;30.25;42.26;100711.28;6037896;23;20460;-82
2022/07/09 10:49:50;;;;;;;29.15;26.98;;;;;;;30.64;42.97;100716.50;6038605;23;20058;-81
2022/07/09 10:52:17;;;;;;;25.77;23.97;;;;;;;31.74;45.65;100708.13;6038306;23;20051;-82
2022/07/09 10:54:48;;;;;;;26.83;24.73;;;;;;;31.65;43.39;100716.53;6032004;23;20031;-83
2022/07/09 10:57:15;;;;;;;26.13;24.25;;;;;;;31.89;43.10;100703.81;6040038;23;20023;-82
2022/07/09 10:59:47;;;;;;;26.80;24.38;;;;;;;31.43;39.98;100700.59;6040808;23;20034;-83
2022/07/09 11:02:21;;;;;;;31.38;29.15;;;;;;;30.55;48.34;100708.38;6037069;23;20023;-81
2022/07/09 11:04:53;;;;;;;30.17;27.80;;;;;;;30.47;51.71;100699.13;6037520;23;20015;-82
2022/07/09 11:07:22;;;;;;;27.42;25.42;;;;;;;30.76;43.63;100702.78;6037531;23;20019;-82
2022/07/09 11:09:49;;;;;;;26.85;25.05;;;;;;;30.70;45.86;100702.22;6038066;23;20019;-83